TimeCDT,TemperatureF,Dew PointF,Humidity,Sea Level PressureIn,VisibilityMPH,Wind Direction,Wind SpeedMPH,Gust SpeedMPH,PrecipitationIn,Events,Conditions,WindDirDegrees,DateUTC
12:53 AM,66.9,55.9,68,30.12,10.0,South,15.0,-,N/A,,Overcast,170,2013-03-29 05:53:00
1:53 AM,66.0,55.9,70,30.13,10.0,South,16.1,-,N/A,,Overcast,170,2013-03-29 06:53:00
2:53 AM,64.0,55.0,73,30.12,10.0,South,17.3,-,N/A,,Mostly Cloudy,170,2013-03-29 07:53:00
3:53 AM,63.0,55.0,75,30.12,10.0,South,12.7,-,N/A,,Mostly Cloudy,170,2013-03-29 08:53:00
4:53 AM,63.0,55.0,75,30.12,10.0,South,16.1,24.2,N/A,,Mostly Cloudy,170,2013-03-29 09:53:00
5:27 AM,62.6,55.4,77,30.13,10.0,South,15.0,23.0,N/A,,Mostly Cloudy,170,2013-03-29 10:27:00
5:53 AM,62.1,55.0,78,30.12,10.0,South,13.8,-,N/A,,Mostly Cloudy,180,2013-03-29 10:53:00
6:53 AM,62.1,55.0,78,30.14,10.0,South,13.8,-,N/A,,Overcast,170,2013-03-29 11:53:00
7:53 AM,61.0,55.0,81,30.17,10.0,South,12.7,-,N/A,,Overcast,170,2013-03-29 12:53:00
8:53 AM,62.1,55.0,78,30.18,10.0,SSE,10.4,-,N/A,,Overcast,160,2013-03-29 13:53:00
9:53 AM,64.0,55.0,73,30.18,10.0,South,10.4,-,N/A,,Mostly Cloudy,190,2013-03-29 14:53:00
10:53 AM,66.9,55.9,68,30.17,10.0,South,17.3,21.9,N/A,,Mostly Cloudy,180,2013-03-29 15:53:00
11:53 AM,71.1,54.0,55,30.15,10.0,South,15.0,21.9,N/A,,Mostly Cloudy,190,2013-03-29 16:53:00
12:50 PM,71.6,53.6,53,30.15,10.0,SSW,9.2,18.4,N/A,,Mostly Cloudy,200,2013-03-29 17:50:00
12:53 PM,73.0,54.0,51,30.14,10.0,SSW,12.7,18.4,N/A,,Mostly Cloudy,210,2013-03-29 17:53:00
1:53 PM,75.0,54.0,48,30.10,10.0,SSW,10.4,17.3,N/A,,Mostly Cloudy,210,2013-03-29 18:53:00
2:53 PM,75.9,54.0,46,30.07,10.0,SSW,11.5,18.4,N/A,,Mostly Cloudy,200,2013-03-29 19:53:00
3:53 PM,75.9,55.0,48,30.06,10.0,South,17.3,21.9,N/A,,Overcast,180,2013-03-29 20:53:00
4:53 PM,73.9,55.0,52,30.06,10.0,South,15.0,24.2,N/A,,Overcast,190,2013-03-29 21:53:00
5:53 PM,75.0,55.0,50,30.06,10.0,SSE,11.5,-,N/A,,Overcast,160,2013-03-29 22:53:00
6:53 PM,73.9,55.0,52,30.05,10.0,SSE,16.1,-,N/A,,Overcast,150,2013-03-29 23:53:00
7:53 PM,73.0,55.0,53,30.06,10.0,SSE,12.7,20.7,N/A,,Overcast,150,2013-03-30 00:53:00
8:53 PM,72.0,55.0,55,30.06,10.0,SSE,15.0,-,N/A,,Overcast,150,2013-03-30 01:53:00
9:53 PM,72.0,55.9,57,30.08,10.0,SSE,13.8,-,N/A,,Overcast,150,2013-03-30 02:53:00
10:53 PM,71.1,55.9,59,30.05,10.0,SE,15.0,25.3,N/A,,Overcast,140,2013-03-30 03:53:00
11:53 PM,70.0,55.9,61,30.01,10.0,SE,21.9,29.9,0.00,,Overcast,140,2013-03-30 04:53:00